sensor_id;sensor_type;location;lat;lon;timestamp;P1;durP1;ratioP1;P2;durP2;ratioP2
17763;SDS011;22245;52.832;13.816;2023-08-08T00:00:14;7.45;;;2.10;;
17763;SDS011;22245;52.832;13.816;2023-08-08T00:03:36;6.97;;;2.65;;
17763;SDS011;22245;52.832;13.816;2023-08-08T00:06:58;7.75;;;1.95;;
17763;SDS011;22245;52.832;13.816;2023-08-08T00:10:20;5.60;;;1.98;;
17763;SDS011;22245;52.832;13.816;2023-08-08T00:13:43;6.43;;;1.95;;
17763;SDS011;22245;52.832;13.816;2023-08-08T00:17:04;3.95;;;1.80;;
17763;SDS011;22245;52.832;13.816;2023-08-08T00:20:26;3.92;;;2.42;;
17763;SDS011;22245;52.832;13.816;2023-08-08T00:23:48;4.97;;;1.92;;
17763;SDS011;22245;52.832;13.816;2023-08-08T00:27:10;4.38;;;1.77;;
17763;SDS011;22245;52.832;13.816;2023-08-08T00:30:33;4.82;;;2.00;;
17763;SDS011;22245;52.832;13.816;2023-08-08T00:33:56;5.72;;;1.92;;
17763;SDS011;22245;52.832;13.816;2023-08-08T00:37:17;7.47;;;1.90;;
17763;SDS011;22245;52.832;13.816;2023-08-08T00:40:40;4.82;;;1.70;;
17763;SDS011;22245;52.832;13.816;2023-08-08T00:44:01;5.82;;;1.95;;
17763;SDS011;22245;52.832;13.816;2023-08-08T00:47:24;5.05;;;1.90;;
17763;SDS011;22245;52.832;13.816;2023-08-08T00:50:47;6.22;;;1.98;;
17763;SDS011;22245;52.832;13.816;2023-08-08T00:54:11;7.57;;;2.03;;
17763;SDS011;22245;52.832;13.816;2023-08-08T00:57:34;7.38;;;1.98;;
17763;SDS011;22245;52.832;13.816;2023-08-08T01:00:58;7.30;;;1.85;;
17763;SDS011;22245;52.832;13.816;2023-08-08T01:04:22;4.30;;;1.73;;
17763;SDS011;22245;52.832;13.816;2023-08-08T01:07:47;4.72;;;1.95;;
17763;SDS011;22245;52.832;13.816;2023-08-08T01:11:15;3.67;;;1.70;;
17763;SDS011;22245;52.832;13.816;2023-08-08T01:14:37;6.28;;;1.85;;
17763;SDS011;22245;52.832;13.816;2023-08-08T01:18:01;5.45;;;1.75;;
17763;SDS011;22245;52.832;13.816;2023-08-08T01:21:27;8.13;;;2.20;;
17763;SDS011;22245;52.832;13.816;2023-08-08T01:24:53;5.40;;;1.77;;
17763;SDS011;22245;52.832;13.816;2023-08-08T01:28:15;4.55;;;1.95;;
17763;SDS011;22245;52.832;13.816;2023-08-08T01:31:37;5.63;;;1.98;;
17763;SDS011;22245;52.832;13.816;2023-08-08T01:34:59;6.68;;;1.67;;
17763;SDS011;22245;52.832;13.816;2023-08-08T01:38:23;4.53;;;1.90;;
17763;SDS011;22245;52.832;13.816;2023-08-08T01:41:50;6.18;;;2.20;;
17763;SDS011;22245;52.832;13.816;2023-08-08T01:45:14;6.10;;;1.83;;
17763;SDS011;22245;52.832;13.816;2023-08-08T01:48:36;3.00;;;1.67;;
17763;SDS011;22245;52.832;13.816;2023-08-08T01:51:58;3.88;;;1.45;;
17763;SDS011;22245;52.832;13.816;2023-08-08T01:55:20;3.50;;;1.88;;
17763;SDS011;22245;52.832;13.816;2023-08-08T01:58:43;7.97;;;1.80;;
17763;SDS011;22245;52.832;13.816;2023-08-08T02:02:05;4.90;;;1.73;;
17763;SDS011;22245;52.832;13.816;2023-08-08T02:05:28;6.97;;;1.67;;
17763;SDS011;22245;52.832;13.816;2023-08-08T02:08:50;4.47;;;1.50;;
17763;SDS011;22245;52.832;13.816;2023-08-08T02:12:12;3.78;;;1.75;;
17763;SDS011;22245;52.832;13.816;2023-08-08T02:15:35;3.28;;;1.50;;
17763;SDS011;22245;52.832;13.816;2023-08-08T02:18:56;4.28;;;1.23;;
17763;SDS011;22245;52.832;13.816;2023-08-08T02:22:19;3.25;;;1.30;;
17763;SDS011;22245;52.832;13.816;2023-08-08T02:25:40;2.05;;;1.23;;
17763;SDS011;22245;52.832;13.816;2023-08-08T02:29:02;3.58;;;1.40;;
17763;SDS011;22245;52.832;13.816;2023-08-08T02:32:25;4.15;;;1.63;;
17763;SDS011;22245;52.832;13.816;2023-08-08T02:35:47;3.40;;;1.58;;
17763;SDS011;22245;52.832;13.816;2023-08-08T02:39:09;3.22;;;1.50;;
17763;SDS011;22245;52.832;13.816;2023-08-08T02:42:31;3.53;;;1.50;;
17763;SDS011;22245;52.832;13.816;2023-08-08T02:45:53;3.35;;;1.63;;
17763;SDS011;22245;52.832;13.816;2023-08-08T02:49:16;4.70;;;1.65;;
17763;SDS011;22245;52.832;13.816;2023-08-08T02:52:39;4.97;;;1.50;;
17763;SDS011;22245;52.832;13.816;2023-08-08T02:56:01;3.00;;;1.45;;
17763;SDS011;22245;52.832;13.816;2023-08-08T02:59:28;5.97;;;1.70;;
17763;SDS011;22245;52.832;13.816;2023-08-08T03:02:50;3.15;;;1.38;;
17763;SDS011;22245;52.832;13.816;2023-08-08T03:06:14;4.00;;;1.67;;
17763;SDS011;22245;52.832;13.816;2023-08-08T03:09:36;2.15;;;1.30;;
17763;SDS011;22245;52.832;13.816;2023-08-08T03:13:01;3.80;;;1.70;;
17763;SDS011;22245;52.832;13.816;2023-08-08T03:16:24;3.45;;;1.50;;
17763;SDS011;22245;52.832;13.816;2023-08-08T03:19:48;8.85;;;1.63;;
17763;SDS011;22245;52.832;13.816;2023-08-08T03:23:11;4.07;;;1.80;;
17763;SDS011;22245;52.832;13.816;2023-08-08T03:26:33;3.63;;;1.70;;
17763;SDS011;22245;52.832;13.816;2023-08-08T03:29:55;3.05;;;1.58;;
17763;SDS011;22245;52.832;13.816;2023-08-08T03:33:17;6.25;;;2.17;;
17763;SDS011;22245;52.832;13.816;2023-08-08T03:36:40;4.40;;;2.05;;
17763;SDS011;22245;52.832;13.816;2023-08-08T03:40:06;3.72;;;1.95;;
17763;SDS011;22245;52.832;13.816;2023-08-08T03:43:29;5.50;;;2.00;;
17763;SDS011;22245;52.832;13.816;2023-08-08T03:46:51;10.15;;;2.67;;
17763;SDS011;22245;52.832;13.816;2023-08-08T03:50:28;2.53;;;1.60;;
17763;SDS011;22245;52.832;13.816;2023-08-08T03:53:50;6.07;;;1.95;;
17763;SDS011;22245;52.832;13.816;2023-08-08T03:57:14;3.22;;;1.90;;
17763;SDS011;22245;52.832;13.816;2023-08-08T04:00:36;6.20;;;1.77;;
17763;SDS011;22245;52.832;13.816;2023-08-08T04:04:00;5.03;;;2.00;;
17763;SDS011;22245;52.832;13.816;2023-08-08T04:07:22;5.60;;;1.83;;
17763;SDS011;22245;52.832;13.816;2023-08-08T04:10:44;5.95;;;1.85;;
17763;SDS011;22245;52.832;13.816;2023-08-08T04:14:09;4.47;;;1.70;;
17763;SDS011;22245;52.832;13.816;2023-08-08T04:17:31;2.60;;;1.70;;
17763;SDS011;22245;52.832;13.816;2023-08-08T04:20:53;3.35;;;1.83;;
17763;SDS011;22245;52.832;13.816;2023-08-08T04:24:14;3.95;;;1.92;;
17763;SDS011;22245;52.832;13.816;2023-08-08T04:27:36;3.25;;;1.88;;
17763;SDS011;22245;52.832;13.816;2023-08-08T04:30:59;4.85;;;2.05;;
17763;SDS011;22245;52.832;13.816;2023-08-08T04:34:21;2.90;;;1.63;;
17763;SDS011;22245;52.832;13.816;2023-08-08T04:37:43;4.75;;;1.85;;
17763;SDS011;22245;52.832;13.816;2023-08-08T04:41:05;7.50;;;1.98;;
17763;SDS011;22245;52.832;13.816;2023-08-08T04:44:26;2.58;;;1.73;;
17763;SDS011;22245;52.832;13.816;2023-08-08T04:47:50;5.85;;;2.30;;
17763;SDS011;22245;52.832;13.816;2023-08-08T04:51:12;6.13;;;2.17;;
17763;SDS011;22245;52.832;13.816;2023-08-08T04:54:34;5.72;;;1.80;;
17763;SDS011;22245;52.832;13.816;2023-08-08T04:57:56;3.13;;;1.80;;
17763;SDS011;22245;52.832;13.816;2023-08-08T05:01:18;3.47;;;1.80;;
17763;SDS011;22245;52.832;13.816;2023-08-08T05:04:42;3.17;;;1.50;;
17763;SDS011;22245;52.832;13.816;2023-08-08T05:08:04;3.53;;;1.95;;
17763;SDS011;22245;52.832;13.816;2023-08-08T05:11:26;4.85;;;2.53;;
17763;SDS011;22245;52.832;13.816;2023-08-08T05:14:48;5.68;;;2.00;;
17763;SDS011;22245;52.832;13.816;2023-08-08T05:18:09;5.50;;;2.00;;
17763;SDS011;22245;52.832;13.816;2023-08-08T05:21:32;6.95;;;1.77;;
17763;SDS011;22245;52.832;13.816;2023-08-08T05:24:55;3.65;;;1.63;;
17763;SDS011;22245;52.832;13.816;2023-08-08T05:28:17;4.63;;;1.95;;
17763;SDS011;22245;52.832;13.816;2023-08-08T05:31:38;4.68;;;1.70;;
17763;SDS011;22245;52.832;13.816;2023-08-08T05:35:00;3.47;;;1.90;;
17763;SDS011;22245;52.832;13.816;2023-08-08T05:38:25;5.13;;;1.80;;
17763;SDS011;22245;52.832;13.816;2023-08-08T05:41:47;4.88;;;1.98;;
17763;SDS011;22245;52.832;13.816;2023-08-08T05:45:09;3.45;;;1.95;;
17763;SDS011;22245;52.832;13.816;2023-08-08T05:48:31;5.07;;;1.90;;
17763;SDS011;22245;52.832;13.816;2023-08-08T05:51:52;3.00;;;1.77;;
17763;SDS011;22245;52.832;13.816;2023-08-08T05:55:15;6.97;;;1.85;;
17763;SDS011;22245;52.832;13.816;2023-08-08T05:58:37;6.30;;;1.95;;
17763;SDS011;22245;52.832;13.816;2023-08-08T06:01:59;3.75;;;1.70;;
17763;SDS011;22245;52.832;13.816;2023-08-08T06:05:22;5.03;;;1.80;;
17763;SDS011;22245;52.832;13.816;2023-08-08T06:08:44;4.60;;;1.77;;
17763;SDS011;22245;52.832;13.816;2023-08-08T06:12:08;3.78;;;2.10;;
17763;SDS011;22245;52.832;13.816;2023-08-08T06:15:30;7.32;;;2.17;;
17763;SDS011;22245;52.832;13.816;2023-08-08T06:18:52;2.08;;;1.58;;
17763;SDS011;22245;52.832;13.816;2023-08-08T06:22:14;6.13;;;1.98;;
17763;SDS011;22245;52.832;13.816;2023-08-08T06:25:36;4.95;;;1.83;;
17763;SDS011;22245;52.832;13.816;2023-08-08T06:29:00;2.63;;;1.45;;
17763;SDS011;22245;52.832;13.816;2023-08-08T06:32:23;3.50;;;2.00;;
17763;SDS011;22245;52.832;13.816;2023-08-08T06:35:44;3.78;;;1.95;;
17763;SDS011;22245;52.832;13.816;2023-08-08T06:39:06;3.78;;;2.03;;
17763;SDS011;22245;52.832;13.816;2023-08-08T06:42:28;5.32;;;1.88;;
17763;SDS011;22245;52.832;13.816;2023-08-08T06:45:55;2.55;;;1.77;;
17763;SDS011;22245;52.832;13.816;2023-08-08T06:49:17;3.85;;;2.20;;
17763;SDS011;22245;52.832;13.816;2023-08-08T06:52:39;4.32;;;1.73;;
17763;SDS011;22245;52.832;13.816;2023-08-08T06:56:01;4.82;;;1.75;;
17763;SDS011;22245;52.832;13.816;2023-08-08T06:59:23;3.45;;;1.80;;
17763;SDS011;22245;52.832;13.816;2023-08-08T07:02:46;2.63;;;1.90;;
17763;SDS011;22245;52.832;13.816;2023-08-08T07:06:09;4.65;;;1.80;;
17763;SDS011;22245;52.832;13.816;2023-08-08T07:09:30;3.10;;;1.67;;
17763;SDS011;22245;52.832;13.816;2023-08-08T07:12:53;3.60;;;1.77;;
17763;SDS011;22245;52.832;13.816;2023-08-08T07:16:14;6.65;;;2.05;;
17763;SDS011;22245;52.832;13.816;2023-08-08T07:19:38;2.85;;;1.67;;
17763;SDS011;22245;52.832;13.816;2023-08-08T07:22:59;3.60;;;1.77;;
17763;SDS011;22245;52.832;13.816;2023-08-08T07:26:21;2.72;;;1.88;;
17763;SDS011;22245;52.832;13.816;2023-08-08T07:29:43;3.75;;;1.83;;
17763;SDS011;22245;52.832;13.816;2023-08-08T07:33:05;5.13;;;1.88;;
17763;SDS011;22245;52.832;13.816;2023-08-08T07:36:30;3.45;;;1.70;;
17763;SDS011;22245;52.832;13.816;2023-08-08T07:39:52;3.22;;;1.50;;
17763;SDS011;22245;52.832;13.816;2023-08-08T07:43:13;4.80;;;2.17;;
17763;SDS011;22245;52.832;13.816;2023-08-08T07:46:35;3.45;;;1.40;;
17763;SDS011;22245;52.832;13.816;2023-08-08T07:49:57;5.22;;;1.80;;
17763;SDS011;22245;52.832;13.816;2023-08-08T07:53:19;5.38;;;1.90;;
17763;SDS011;22245;52.832;13.816;2023-08-08T07:56:41;3.63;;;1.70;;
17763;SDS011;22245;52.832;13.816;2023-08-08T08:00:05;3.85;;;1.77;;
17763;SDS011;22245;52.832;13.816;2023-08-08T08:03:32;3.03;;;1.70;;
17763;SDS011;22245;52.832;13.816;2023-08-08T08:06:54;4.75;;;1.70;;
17763;SDS011;22245;52.832;13.816;2023-08-08T08:10:17;6.40;;;1.83;;
17763;SDS011;22245;52.832;13.816;2023-08-08T08:13:38;4.90;;;1.63;;
17763;SDS011;22245;52.832;13.816;2023-08-08T08:17:00;3.78;;;1.80;;
17763;SDS011;22245;52.832;13.816;2023-08-08T08:20:22;2.60;;;1.70;;
17763;SDS011;22245;52.832;13.816;2023-08-08T08:23:45;6.38;;;1.90;;
17763;SDS011;22245;52.832;13.816;2023-08-08T08:27:09;3.40;;;2.10;;
17763;SDS011;22245;52.832;13.816;2023-08-08T08:30:30;5.32;;;1.80;;
17763;SDS011;22245;52.832;13.816;2023-08-08T08:33:52;3.88;;;1.60;;
17763;SDS011;22245;52.832;13.816;2023-08-08T08:37:15;3.30;;;1.90;;
17763;SDS011;22245;52.832;13.816;2023-08-08T08:40:38;3.20;;;1.75;;
17763;SDS011;22245;52.832;13.816;2023-08-08T08:44:03;4.32;;;2.03;;
17763;SDS011;22245;52.832;13.816;2023-08-08T08:47:25;4.05;;;1.70;;
17763;SDS011;22245;52.832;13.816;2023-08-08T08:50:51;3.17;;;1.85;;
17763;SDS011;22245;52.832;13.816;2023-08-08T08:54:13;4.82;;;1.85;;
17763;SDS011;22245;52.832;13.816;2023-08-08T08:57:36;4.75;;;1.70;;
17763;SDS011;22245;52.832;13.816;2023-08-08T09:01:01;5.25;;;1.63;;
17763;SDS011;22245;52.832;13.816;2023-08-08T09:04:23;5.88;;;2.03;;
17763;SDS011;22245;52.832;13.816;2023-08-08T09:07:44;2.90;;;1.63;;
17763;SDS011;22245;52.832;13.816;2023-08-08T09:11:06;3.03;;;1.80;;
17763;SDS011;22245;52.832;13.816;2023-08-08T09:14:28;5.20;;;1.95;;
17763;SDS011;22245;52.832;13.816;2023-08-08T09:17:52;2.38;;;1.50;;
17763;SDS011;22245;52.832;13.816;2023-08-08T09:21:14;3.92;;;1.70;;
17763;SDS011;22245;52.832;13.816;2023-08-08T09:24:37;4.45;;;1.80;;
17763;SDS011;22245;52.832;13.816;2023-08-08T09:28:00;4.25;;;1.73;;
17763;SDS011;22245;52.832;13.816;2023-08-08T09:31:21;5.20;;;1.90;;
17763;SDS011;22245;52.832;13.816;2023-08-08T09:34:48;2.58;;;1.77;;
17763;SDS011;22245;52.832;13.816;2023-08-08T09:38:10;3.47;;;1.80;;
17763;SDS011;22245;52.832;13.816;2023-08-08T09:41:32;5.78;;;2.13;;
17763;SDS011;22245;52.832;13.816;2023-08-08T09:44:54;2.97;;;1.73;;
17763;SDS011;22245;52.832;13.816;2023-08-08T09:48:18;5.72;;;1.83;;
17763;SDS011;22245;52.832;13.816;2023-08-08T09:51:42;3.08;;;1.70;;
17763;SDS011;22245;52.832;13.816;2023-08-08T09:55:04;4.88;;;1.80;;
17763;SDS011;22245;52.832;13.816;2023-08-08T09:58:28;4.82;;;2.00;;
17763;SDS011;22245;52.832;13.816;2023-08-08T10:01:50;4.93;;;2.20;;
17763;SDS011;22245;52.832;13.816;2023-08-08T10:05:14;4.15;;;1.98;;
17763;SDS011;22245;52.832;13.816;2023-08-08T10:08:39;4.85;;;2.13;;
17763;SDS011;22245;52.832;13.816;2023-08-08T10:12:01;4.75;;;2.30;;
17763;SDS011;22245;52.832;13.816;2023-08-08T10:15:25;5.85;;;2.20;;
17763;SDS011;22245;52.832;13.816;2023-08-08T10:18:54;4.18;;;2.20;;
17763;SDS011;22245;52.832;13.816;2023-08-08T10:22:19;2.92;;;2.00;;
17763;SDS011;22245;52.832;13.816;2023-08-08T10:25:45;3.50;;;2.17;;
17763;SDS011;22245;52.832;13.816;2023-08-08T10:29:17;3.38;;;2.00;;
17763;SDS011;22245;52.832;13.816;2023-08-08T10:32:39;4.45;;;1.77;;
17763;SDS011;22245;52.832;13.816;2023-08-08T10:36:03;2.88;;;1.92;;
17763;SDS011;22245;52.832;13.816;2023-08-08T10:39:27;2.63;;;1.95;;
17763;SDS011;22245;52.832;13.816;2023-08-08T10:42:53;4.30;;;1.83;;
17763;SDS011;22245;52.832;13.816;2023-08-08T10:46:14;6.32;;;2.05;;
17763;SDS011;22245;52.832;13.816;2023-08-08T10:49:44;3.55;;;1.88;;
17763;SDS011;22245;52.832;13.816;2023-08-08T10:53:17;7.10;;;2.15;;
17763;SDS011;22245;52.832;13.816;2023-08-08T10:56:50;4.72;;;1.58;;
17763;SDS011;22245;52.832;13.816;2023-08-08T11:00:17;3.92;;;1.60;;
17763;SDS011;22245;52.832;13.816;2023-08-08T11:03:40;3.00;;;1.60;;
17763;SDS011;22245;52.832;13.816;2023-08-08T11:07:03;3.80;;;1.70;;
17763;SDS011;22245;52.832;13.816;2023-08-08T11:10:25;2.63;;;1.60;;
17763;SDS011;22245;52.832;13.816;2023-08-08T11:13:51;8.30;;;2.22;;
17763;SDS011;22245;52.832;13.816;2023-08-08T11:17:14;6.65;;;2.13;;
17763;SDS011;22245;52.832;13.816;2023-08-08T11:20:35;6.00;;;2.30;;
17763;SDS011;22245;52.832;13.816;2023-08-08T11:23:58;2.92;;;1.85;;
17763;SDS011;22245;52.832;13.816;2023-08-08T11:27:20;4.85;;;2.20;;
17763;SDS011;22245;52.832;13.816;2023-08-08T11:30:45;4.95;;;2.30;;
17763;SDS011;22245;52.832;13.816;2023-08-08T11:34:09;3.55;;;2.20;;
17763;SDS011;22245;52.832;13.816;2023-08-08T11:37:33;5.68;;;2.60;;
17763;SDS011;22245;52.832;13.816;2023-08-08T11:40:54;5.40;;;3.03;;
17763;SDS011;22245;52.832;13.816;2023-08-08T11:44:17;5.63;;;2.60;;
17763;SDS011;22245;52.832;13.816;2023-08-08T11:47:39;5.03;;;2.80;;
17763;SDS011;22245;52.832;13.816;2023-08-08T11:51:04;5.28;;;2.70;;
17763;SDS011;22245;52.832;13.816;2023-08-08T11:54:26;3.92;;;3.10;;
17763;SDS011;22245;52.832;13.816;2023-08-08T11:57:48;11.63;;;3.30;;
17763;SDS011;22245;52.832;13.816;2023-08-08T12:01:10;5.13;;;2.70;;
17763;SDS011;22245;52.832;13.816;2023-08-08T12:04:34;6.82;;;2.75;;
17763;SDS011;22245;52.832;13.816;2023-08-08T12:07:58;6.70;;;3.40;;
17763;SDS011;22245;52.832;13.816;2023-08-08T12:11:20;2.83;;;2.53;;
17763;SDS011;22245;52.832;13.816;2023-08-08T12:14:45;4.97;;;2.78;;
17763;SDS011;22245;52.832;13.816;2023-08-08T12:18:16;5.07;;;3.00;;
17763;SDS011;22245;52.832;13.816;2023-08-08T12:21:39;4.43;;;2.60;;
17763;SDS011;22245;52.832;13.816;2023-08-08T12:25:02;4.97;;;2.70;;
17763;SDS011;22245;52.832;13.816;2023-08-08T12:28:24;4.82;;;2.33;;
17763;SDS011;22245;52.832;13.816;2023-08-08T12:31:46;3.22;;;2.42;;
17763;SDS011;22245;52.832;13.816;2023-08-08T12:35:08;1.88;;;1.60;;
17763;SDS011;22245;52.832;13.816;2023-08-08T12:38:30;2.63;;;1.55;;
17763;SDS011;22245;52.832;13.816;2023-08-08T12:41:53;2.95;;;1.50;;
17763;SDS011;22245;52.832;13.816;2023-08-08T12:45:15;2.97;;;1.42;;
17763;SDS011;22245;52.832;13.816;2023-08-08T12:48:38;2.53;;;1.40;;
17763;SDS011;22245;52.832;13.816;2023-08-08T12:51:59;3.05;;;1.55;;
17763;SDS011;22245;52.832;13.816;2023-08-08T12:55:20;3.55;;;1.55;;
17763;SDS011;22245;52.832;13.816;2023-08-08T12:58:44;3.70;;;1.60;;
17763;SDS011;22245;52.832;13.816;2023-08-08T13:02:05;5.05;;;1.50;;
17763;SDS011;22245;52.832;13.816;2023-08-08T13:05:27;2.85;;;1.50;;
17763;SDS011;22245;52.832;13.816;2023-08-08T13:08:49;5.28;;;1.85;;
17763;SDS011;22245;52.832;13.816;2023-08-08T13:12:10;3.30;;;1.60;;
17763;SDS011;22245;52.832;13.816;2023-08-08T13:15:33;4.65;;;1.50;;
17763;SDS011;22245;52.832;13.816;2023-08-08T13:18:56;2.42;;;1.38;;
17763;SDS011;22245;52.832;13.816;2023-08-08T13:22:17;3.35;;;1.40;;
17763;SDS011;22245;52.832;13.816;2023-08-08T13:25:39;1.95;;;1.45;;
17763;SDS011;22245;52.832;13.816;2023-08-08T13:29:00;4.03;;;1.63;;
17763;SDS011;22245;52.832;13.816;2023-08-08T13:32:23;3.58;;;1.30;;
17763;SDS011;22245;52.832;13.816;2023-08-08T13:35:45;3.38;;;1.23;;
17763;SDS011;22245;52.832;13.816;2023-08-08T13:39:07;1.85;;;1.48;;
17763;SDS011;22245;52.832;13.816;2023-08-08T13:42:29;4.95;;;1.45;;
17763;SDS011;22245;52.832;13.816;2023-08-08T13:45:51;2.53;;;1.38;;
17763;SDS011;22245;52.832;13.816;2023-08-08T13:49:14;2.22;;;1.20;;
17763;SDS011;22245;52.832;13.816;2023-08-08T13:52:36;2.95;;;1.23;;
17763;SDS011;22245;52.832;13.816;2023-08-08T13:55:57;2.63;;;1.25;;
17763;SDS011;22245;52.832;13.816;2023-08-08T13:59:19;2.08;;;1.30;;
17763;SDS011;22245;52.832;13.816;2023-08-08T14:02:40;3.40;;;1.65;;
17763;SDS011;22245;52.832;13.816;2023-08-08T14:06:04;2.53;;;1.42;;
17763;SDS011;22245;52.832;13.816;2023-08-08T14:09:27;3.20;;;1.80;;
17763;SDS011;22245;52.832;13.816;2023-08-08T14:12:48;2.20;;;1.33;;
17763;SDS011;22245;52.832;13.816;2023-08-08T14:16:10;3.33;;;1.50;;
17763;SDS011;22245;52.832;13.816;2023-08-08T14:19:33;3.33;;;1.60;;
17763;SDS011;22245;52.832;13.816;2023-08-08T14:22:56;2.50;;;1.58;;
17763;SDS011;22245;52.832;13.816;2023-08-08T14:26:18;3.25;;;1.65;;
17763;SDS011;22245;52.832;13.816;2023-08-08T14:29:39;4.30;;;1.80;;
17763;SDS011;22245;52.832;13.816;2023-08-08T14:33:01;5.70;;;2.08;;
17763;SDS011;22245;52.832;13.816;2023-08-08T14:36:23;2.85;;;1.80;;
17763;SDS011;22245;52.832;13.816;2023-08-08T14:39:46;2.75;;;1.70;;
17763;SDS011;22245;52.832;13.816;2023-08-08T14:43:08;3.15;;;1.52;;
17763;SDS011;22245;52.832;13.816;2023-08-08T14:46:32;3.08;;;1.70;;
17763;SDS011;22245;52.832;13.816;2023-08-08T14:49:56;3.13;;;1.73;;
17763;SDS011;22245;52.832;13.816;2023-08-08T14:53:18;4.47;;;2.03;;
17763;SDS011;22245;52.832;13.816;2023-08-08T14:56:41;5.90;;;4.45;;
17763;SDS011;22245;52.832;13.816;2023-08-08T15:00:04;2.38;;;1.83;;
17763;SDS011;22245;52.832;13.816;2023-08-08T15:03:30;4.43;;;1.50;;
17763;SDS011;22245;52.832;13.816;2023-08-08T15:06:51;2.65;;;1.50;;
17763;SDS011;22245;52.832;13.816;2023-08-08T15:10:13;5.43;;;1.48;;
17763;SDS011;22245;52.832;13.816;2023-08-08T15:13:41;2.65;;;1.50;;
17763;SDS011;22245;52.832;13.816;2023-08-08T15:17:03;2.35;;;1.33;;
17763;SDS011;22245;52.832;13.816;2023-08-08T15:20:24;2.40;;;1.35;;
17763;SDS011;22245;52.832;13.816;2023-08-08T15:23:46;2.05;;;1.45;;
17763;SDS011;22245;52.832;13.816;2023-08-08T15:27:10;4.28;;;1.75;;
17763;SDS011;22245;52.832;13.816;2023-08-08T15:30:32;2.15;;;1.02;;
17763;SDS011;22245;52.832;13.816;2023-08-08T15:33:55;4.60;;;1.88;;
17763;SDS011;22245;52.832;13.816;2023-08-08T15:37:16;3.40;;;1.33;;
17763;SDS011;22245;52.832;13.816;2023-08-08T15:40:38;1.63;;;1.17;;
17763;SDS011;22245;52.832;13.816;2023-08-08T15:44:01;2.25;;;1.20;;
17763;SDS011;22245;52.832;13.816;2023-08-08T15:47:24;3.22;;;1.20;;
17763;SDS011;22245;52.832;13.816;2023-08-08T15:50:46;1.98;;;1.10;;
17763;SDS011;22245;52.832;13.816;2023-08-08T15:54:07;3.13;;;1.38;;
17763;SDS011;22245;52.832;13.816;2023-08-08T15:57:29;1.70;;;1.10;;
17763;SDS011;22245;52.832;13.816;2023-08-08T16:00:51;2.92;;;1.00;;
17763;SDS011;22245;52.832;13.816;2023-08-08T16:04:16;1.33;;;0.98;;
17763;SDS011;22245;52.832;13.816;2023-08-08T16:07:37;1.83;;;1.05;;
17763;SDS011;22245;52.832;13.816;2023-08-08T16:10:59;1.65;;;1.10;;
17763;SDS011;22245;52.832;13.816;2023-08-08T16:14:23;1.45;;;1.10;;
17763;SDS011;22245;52.832;13.816;2023-08-08T16:17:45;3.58;;;1.20;;
17763;SDS011;22245;52.832;13.816;2023-08-08T16:21:08;2.88;;;1.20;;
17763;SDS011;22245;52.832;13.816;2023-08-08T16:24:30;1.38;;;1.00;;
17763;SDS011;22245;52.832;13.816;2023-08-08T16:27:52;1.38;;;1.00;;
17763;SDS011;22245;52.832;13.816;2023-08-08T16:31:13;1.92;;;1.20;;
17763;SDS011;22245;52.832;13.816;2023-08-08T16:34:35;1.38;;;0.95;;
17763;SDS011;22245;52.832;13.816;2023-08-08T16:37:58;1.27;;;1.00;;
17763;SDS011;22245;52.832;13.816;2023-08-08T16:41:21;1.60;;;0.90;;
17763;SDS011;22245;52.832;13.816;2023-08-08T16:44:43;1.38;;;0.90;;
17763;SDS011;22245;52.832;13.816;2023-08-08T16:48:05;2.28;;;1.20;;
17763;SDS011;22245;52.832;13.816;2023-08-08T16:51:27;1.50;;;1.10;;
17763;SDS011;22245;52.832;13.816;2023-08-08T16:54:50;2.25;;;1.10;;
17763;SDS011;22245;52.832;13.816;2023-08-08T16:58:14;3.03;;;1.10;;
17763;SDS011;22245;52.832;13.816;2023-08-08T17:01:36;2.67;;;1.20;;
17763;SDS011;22245;52.832;13.816;2023-08-08T17:05:02;1.67;;;1.05;;
17763;SDS011;22245;52.832;13.816;2023-08-08T17:08:24;2.17;;;1.35;;
17763;SDS011;22245;52.832;13.816;2023-08-08T17:11:48;1.42;;;1.13;;
17763;SDS011;22245;52.832;13.816;2023-08-08T17:15:10;1.27;;;1.10;;
17763;SDS011;22245;52.832;13.816;2023-08-08T17:18:31;2.15;;;1.25;;
17763;SDS011;22245;52.832;13.816;2023-08-08T17:21:52;2.10;;;1.25;;
17763;SDS011;22245;52.832;13.816;2023-08-08T17:25:16;2.10;;;1.17;;
17763;SDS011;22245;52.832;13.816;2023-08-08T17:28:39;5.10;;;1.20;;
17763;SDS011;22245;52.832;13.816;2023-08-08T17:32:01;3.53;;;1.30;;
17763;SDS011;22245;52.832;13.816;2023-08-08T17:35:25;3.03;;;1.50;;
17763;SDS011;22245;52.832;13.816;2023-08-08T17:38:48;2.22;;;1.35;;
17763;SDS011;22245;52.832;13.816;2023-08-08T17:42:10;1.77;;;1.13;;
17763;SDS011;22245;52.832;13.816;2023-08-08T17:45:33;2.08;;;1.40;;
17763;SDS011;22245;52.832;13.816;2023-08-08T17:48:55;3.28;;;1.40;;
17763;SDS011;22245;52.832;13.816;2023-08-08T17:52:16;2.50;;;1.27;;
17763;SDS011;22245;52.832;13.816;2023-08-08T17:55:37;3.85;;;1.42;;
17763;SDS011;22245;52.832;13.816;2023-08-08T17:58:59;3.17;;;1.42;;
17763;SDS011;22245;52.832;13.816;2023-08-08T18:02:22;1.85;;;1.27;;
17763;SDS011;22245;52.832;13.816;2023-08-08T18:05:44;1.48;;;1.30;;
17763;SDS011;22245;52.832;13.816;2023-08-08T18:09:06;3.45;;;1.73;;
17763;SDS011;22245;52.832;13.816;2023-08-08T18:12:28;2.65;;;1.38;;
17763;SDS011;22245;52.832;13.816;2023-08-08T18:15:50;6.97;;;1.58;;
17763;SDS011;22245;52.832;13.816;2023-08-08T18:19:15;1.73;;;1.48;;
17763;SDS011;22245;52.832;13.816;2023-08-08T18:22:39;5.50;;;1.40;;
17763;SDS011;22245;52.832;13.816;2023-08-08T18:26:01;3.78;;;1.63;;
17763;SDS011;22245;52.832;13.816;2023-08-08T18:29:23;3.10;;;1.33;;
17763;SDS011;22245;52.832;13.816;2023-08-08T18:32:44;2.15;;;1.38;;
17763;SDS011;22245;52.832;13.816;2023-08-08T18:36:08;2.30;;;1.25;;
17763;SDS011;22245;52.832;13.816;2023-08-08T18:39:29;2.33;;;1.48;;
17763;SDS011;22245;52.832;13.816;2023-08-08T18:42:51;2.70;;;1.52;;
17763;SDS011;22245;52.832;13.816;2023-08-08T18:46:13;4.93;;;1.55;;
17763;SDS011;22245;52.832;13.816;2023-08-08T18:49:37;6.97;;;1.60;;
17763;SDS011;22245;52.832;13.816;2023-08-08T18:53:01;2.42;;;1.40;;
17763;SDS011;22245;52.832;13.816;2023-08-08T18:56:22;1.75;;;1.40;;
17763;SDS011;22245;52.832;13.816;2023-08-08T18:59:44;1.80;;;1.38;;
17763;SDS011;22245;52.832;13.816;2023-08-08T19:03:06;3.78;;;1.80;;
17763;SDS011;22245;52.832;13.816;2023-08-08T19:06:28;4.38;;;1.60;;
17763;SDS011;22245;52.832;13.816;2023-08-08T19:09:51;4.20;;;2.22;;
17763;SDS011;22245;52.832;13.816;2023-08-08T19:13:13;4.10;;;1.80;;
17763;SDS011;22245;52.832;13.816;2023-08-08T19:16:36;3.42;;;1.60;;
17763;SDS011;22245;52.832;13.816;2023-08-08T19:19:58;2.15;;;1.50;;
17763;SDS011;22245;52.832;13.816;2023-08-08T19:23:21;1.92;;;1.73;;
17763;SDS011;22245;52.832;13.816;2023-08-08T19:26:44;2.92;;;1.63;;
17763;SDS011;22245;52.832;13.816;2023-08-08T19:30:06;1.52;;;1.30;;
17763;SDS011;22245;52.832;13.816;2023-08-08T19:33:29;2.78;;;1.60;;
17763;SDS011;22245;52.832;13.816;2023-08-08T19:36:51;1.70;;;1.40;;
17763;SDS011;22245;52.832;13.816;2023-08-08T19:40:13;2.00;;;1.77;;
17763;SDS011;22245;52.832;13.816;2023-08-08T19:43:37;3.55;;;2.03;;
17763;SDS011;22245;52.832;13.816;2023-08-08T19:46:59;2.90;;;1.60;;
17763;SDS011;22245;52.832;13.816;2023-08-08T19:50:21;1.65;;;1.40;;
17763;SDS011;22245;52.832;13.816;2023-08-08T19:53:43;2.00;;;1.48;;
17763;SDS011;22245;52.832;13.816;2023-08-08T19:57:06;2.83;;;1.48;;
17763;SDS011;22245;52.832;13.816;2023-08-08T20:00:29;6.88;;;2.13;;